Time;durP1;ratioP1;P1;durP2;ratioP2;P2;SDS_P1;SDS_P2;PMS_P1;PMS_P2;Temp;Humidity;BMP_temperature;BMP_pressure;BME280_temperature;BME280_humidity;BME280_pressure;Samples;Min_cycle;Max_cycle;Signal;HPM_P1;HPM_P2
2022/11/27 00:02:01;;;;;;;5.70;1.70;;;;;;;;;;6082576;23;20079;-69
2022/11/27 00:04:28;;;;;;;6.25;2.17;;;;;;;;;;6096750;23;20040;-66
2022/11/27 00:06:56;;;;;;;7.35;1.75;;;;;;;;;;6040095;23;20032;-66
2022/11/27 00:09:24;;;;;;;7.60;2.08;;;;;;;;;;6062510;23;20029;-67
2022/11/27 00:11:50;;;;;;;7.07;2.10;;;;;;;;;;6082744;23;20053;-68
2022/11/27 00:14:17;;;;;;;10.15;2.22;;;;;;;;;;6094875;23;20057;-69
2022/11/27 00:16:44;;;;;;;5.70;1.92;;;;;;;;;;6075391;23;20112;-68
2022/11/27 00:19:11;;;;;;;6.55;2.08;;;;;;;;;;6104521;23;20029;-68
2022/11/27 00:21:38;;;;;;;6.10;2.10;;;;;;;;;;6063179;23;20023;-68
2022/11/27 00:24:08;;;;;;;8.35;2.05;;;;;;;;;;6120342;23;20041;-67
2022/11/27 00:26:34;;;;;;;5.22;1.75;;;;;;;;;;6077863;23;20030;-65
2022/11/27 00:29:01;;;;;;;8.30;1.98;;;;;;;;;;6078607;23;20068;-69
2022/11/27 00:31:29;;;;;;;6.78;2.22;;;;;;;;;;6100548;23;20022;-66
2022/11/27 00:33:56;;;;;;;4.85;1.88;;;;;;;;;;6079204;23;20037;-64
2022/11/27 00:36:22;;;;;;;6.40;2.33;;;;;;;;;;6068193;23;20239;-66
2022/11/27 00:38:49;;;;;;;8.32;2.08;;;;;;;;;;6102946;23;20026;-69
2022/11/27 00:41:17;;;;;;;5.75;2.08;;;;;;;;;;6126901;23;20061;-65
2022/11/27 00:43:44;;;;;;;4.70;2.20;;;;;;;;;;6083058;23;20026;-69
2022/11/27 00:46:11;;;;;;;8.57;2.65;;;;;;;;;;6095891;23;20030;-67
2022/11/27 00:48:38;;;;;;;5.55;1.77;;;;;;;;;;6071531;23;20029;-67
2022/11/27 00:51:05;;;;;;;7.35;2.28;;;;;;;;;;6101673;23;20041;-66
2022/11/27 00:53:32;;;;;;;7.47;2.30;;;;;;;;;;6124998;23;20181;-68
2022/11/27 00:55:59;;;;;;;5.10;1.83;;;;;;;;;;6075836;23;20041;-70
2022/11/27 00:58:30;;;;;;;6.97;2.22;;;;;;;;;;6106579;23;20523;-68
2022/11/27 01:00:58;;;;;;;6.83;2.30;;;;;;;;;;6079918;23;20029;-68
2022/11/27 01:03:25;;;;;;;7.65;2.28;;;;;;;;;;6053974;23;20356;-66
2022/11/27 01:05:51;;;;;;;4.60;1.98;;;;;;;;;;6104420;23;20029;-70
2022/11/27 01:08:19;;;;;;;8.82;2.20;;;;;;;;;;6083895;23;20037;-68
2022/11/27 01:10:49;;;;;;;9.25;2.40;;;;;;;;;;6081084;23;20029;-70
2022/11/27 01:13:16;;;;;;;7.63;2.47;;;;;;;;;;6067536;23;20029;-67
2022/11/27 01:15:44;;;;;;;5.38;2.25;;;;;;;;;;6103483;23;20081;-68
2022/11/27 01:18:10;;;;;;;7.43;2.10;;;;;;;;;;6091699;23;20049;-66
2022/11/27 01:20:38;;;;;;;6.60;2.38;;;;;;;;;;6081143;23;20034;-69
2022/11/27 01:23:04;;;;;;;8.23;2.85;;;;;;;;;;6097922;23;20059;-70
2022/11/27 01:25:31;;;;;;;7.13;1.83;;;;;;;;;;6096784;23;20025;-65
2022/11/27 01:27:58;;;;;;;6.50;2.40;;;;;;;;;;6054208;23;20051;-65
2022/11/27 01:30:25;;;;;;;4.82;2.08;;;;;;;;;;6074495;23;20022;-66
2022/11/27 01:32:53;;;;;;;5.05;2.40;;;;;;;;;;6128051;23;20037;-67
2022/11/27 01:35:19;;;;;;;6.90;2.00;;;;;;;;;;6032233;23;20052;-67
2022/11/27 01:37:45;;;;;;;5.45;2.10;;;;;;;;;;6113694;23;20270;-67
2022/11/27 01:40:12;;;;;;;9.38;2.45;;;;;;;;;;6105476;23;20088;-68
2022/11/27 01:42:39;;;;;;;6.47;2.20;;;;;;;;;;6105325;23;20026;-68
2022/11/27 01:45:05;;;;;;;7.90;2.45;;;;;;;;;;6127421;23;20034;-69
2022/11/27 01:47:38;;;;;;;6.82;2.30;;;;;;;;;;6086398;23;20036;-69
2022/11/27 01:50:08;;;;;;;9.05;2.40;;;;;;;;;;6054607;23;20034;-73
2022/11/27 01:52:36;;;;;;;4.13;2.08;;;;;;;;;;6132678;23;20029;-68
2022/11/27 01:55:05;;;;;;;7.80;2.20;;;;;;;;;;6090364;23;20034;-69
2022/11/27 01:57:31;;;;;;;;;;;;;;;;;;6074117;23;20518;-71
2022/11/27 02:00:00;;;;;;;7.32;1.98;;;;;;;;;;6119582;23;19924;-64
2022/11/27 02:02:26;;;;;;;5.97;2.20;;;;;;;;;;6078788;23;20025;-70
2022/11/27 02:04:53;;;;;;;8.27;2.33;;;;;;;;;;6116587;23;20442;-68
2022/11/27 02:07:21;;;;;;;6.82;2.20;;;;;;;;;;6096361;23;20035;-67
2022/11/27 02:09:48;;;;;;;10.52;2.40;;;;;;;;;;6132250;23;20025;-66
2022/11/27 02:12:23;;;;;;;7.20;2.40;;;;;;;;;;6084000;23;20056;-67
2022/11/27 02:15:04;;;;;;;6.10;2.25;;;;;;;;;;6086086;23;20228;-65
2022/11/27 02:17:36;;;;;;;6.88;2.20;;;;;;;;;;6109150;23;20025;-69
2022/11/27 02:20:19;;;;;;;6.50;2.30;;;;;;;;;;6079280;23;20040;-71
2022/11/27 02:22:53;;;;;;;7.40;2.17;;;;;;;;;;6086359;23;20021;-67
2022/11/27 02:25:24;;;;;;;8.52;2.40;;;;;;;;;;6107200;23;20068;-64
2022/11/27 02:27:57;;;;;;;9.00;2.15;;;;;;;;;;6108415;23;20457;-67
2022/11/27 02:30:25;;;;;;;5.60;2.10;;;;;;;;;;6097518;23;20033;-67
2022/11/27 02:32:55;;;;;;;7.22;2.38;;;;;;;;;;6110375;23;20030;-67
2022/11/27 02:35:26;;;;;;;10.90;2.35;;;;;;;;;;6073905;23;20108;-65
2022/11/27 02:37:57;;;;;;;6.65;2.28;;;;;;;;;;6113237;23;20033;-68
2022/11/27 02:40:27;;;;;;;5.70;2.10;;;;;;;;;;6127925;23;20032;-70
2022/11/27 02:42:56;;;;;;;7.13;2.40;;;;;;;;;;6084529;23;20050;-67
2022/11/27 02:45:25;;;;;;;6.53;2.22;;;;;;;;;;6093062;23;20245;-66
2022/11/27 02:47:54;;;;;;;8.30;2.58;;;;;;;;;;6042614;23;20434;-70
2022/11/27 02:53:00;;;;;;;7.53;2.60;;;;;;;;;;6082431;23;20029;-70
2022/11/27 02:55:28;;;;;;;8.13;2.85;;;;;;;;;;6030700;23;20064;-69
2022/11/27 02:57:56;;;;;;;9.93;2.50;;;;;;;;;;6051622;23;20030;-67
2022/11/27 03:00:23;;;;;;;8.10;2.65;;;;;;;;;;6087418;23;20033;-66
2022/11/27 03:02:52;;;;;;;9.60;2.10;;;;;;;;;;6051977;23;20112;-69
2022/11/27 03:05:21;;;;;;;8.45;2.65;;;;;;;;;;6094952;23;20099;-65
2022/11/27 03:07:51;;;;;;;8.90;2.83;;;;;;;;;;6087130;23;20033;-70
2022/11/27 03:10:21;;;;;;;7.22;2.22;;;;;;;;;;6108954;23;20029;-66
2022/11/27 03:12:48;;;;;;;6.82;2.70;;;;;;;;;;6068735;23;20128;-69
2022/11/27 03:15:15;;;;;;;7.90;2.20;;;;;;;;;;6060646;23;20033;-69
2022/11/27 03:17:49;;;;;;;8.93;2.40;;;;;;;;;;6073218;23;20458;-69
2022/11/27 03:20:18;;;;;;;7.32;2.42;;;;;;;;;;6080787;23;20053;-68
2022/11/27 03:22:46;;;;;;;8.93;2.13;;;;;;;;;;6082882;23;20035;-69
2022/11/27 03:25:14;;;;;;;12.57;2.57;;;;;;;;;;6064944;23;20036;-69
2022/11/27 03:27:45;;;;;;;6.25;2.38;;;;;;;;;;6088175;23;20372;-65
2022/11/27 03:30:13;;;;;;;6.13;2.13;;;;;;;;;;6052803;23;20029;-68
2022/11/27 03:32:39;;;;;;;6.80;2.45;;;;;;;;;;6105784;23;20076;-67
2022/11/27 03:35:09;;;;;;;6.93;2.45;;;;;;;;;;6109608;23;20025;-65
2022/11/27 03:37:35;;;;;;;7.55;2.40;;;;;;;;;;6073781;23;20033;-67
2022/11/27 03:40:04;;;;;;;6.50;2.25;;;;;;;;;;6082934;23;20083;-67
2022/11/27 03:42:30;;;;;;;;;;;;;;;;;;6074311;23;20029;-67
2022/11/27 03:45:01;;;;;;;6.03;2.22;;;;;;;;;;6070219;23;19924;-69
2022/11/27 03:47:34;;;;;;;7.60;2.50;;;;;;;;;;6100697;23;20156;-66
2022/11/27 03:50:18;;;;;;;6.13;2.20;;;;;;;;;;6104414;23;20036;-68
2022/11/27 03:52:50;;;;;;;6.75;2.45;;;;;;;;;;6108860;23;20025;-66
2022/11/27 03:55:22;;;;;;;6.50;2.50;;;;;;;;;;6120936;23;20033;-67
2022/11/27 03:57:52;;;;;;;6.30;2.30;;;;;;;;;;6107187;23;20040;-69
2022/11/27 04:00:19;;;;;;;8.65;2.63;;;;;;;;;;6117711;23;20037;-71
2022/11/27 04:02:46;;;;;;;8.52;2.33;;;;;;;;;;6107352;23;20036;-68
2022/11/27 04:05:14;;;;;;;5.95;2.25;;;;;;;;;;6124644;23;20199;-67
2022/11/27 04:07:41;;;;;;;6.82;2.40;;;;;;;;;;6127771;23;20029;-67
2022/11/27 04:10:11;;;;;;;7.93;2.25;;;;;;;;;;6119214;23;20094;-64
2022/11/27 04:12:39;;;;;;;6.28;2.08;;;;;;;;;;6101279;23;20041;-67
2022/11/27 04:15:14;;;;;;;4.95;2.10;;;;;;;;;;6088117;23;20026;-70
2022/11/27 04:17:40;;;;;;;6.82;2.45;;;;;;;;;;6070166;23;20030;-67
2022/11/27 04:20:07;;;;;;;5.45;1.92;;;;;;;;;;6104427;23;20029;-68
2022/11/27 04:22:34;;;;;;;8.10;2.15;;;;;;;;;;6100808;23;20033;-67
2022/11/27 04:25:00;;;;;;;9.23;2.10;;;;;;;;;;6089791;23;20034;-67
2022/11/27 04:27:27;;;;;;;5.30;2.30;;;;;;;;;;6065932;23;20034;-65
2022/11/27 04:29:55;;;;;;;6.05;2.25;;;;;;;;;;6078570;23;20088;-64
2022/11/27 04:32:21;;;;;;;5.30;2.10;;;;;;;;;;6140556;23;20034;-70
2022/11/27 04:34:48;;;;;;;5.57;1.70;;;;;;;;;;6129865;23;20029;-64
2022/11/27 04:37:15;;;;;;;5.72;2.25;;;;;;;;;;6085349;23;20056;-68
2022/11/27 04:39:41;;;;;;;5.03;1.83;;;;;;;;;;6129012;23;20036;-65
2022/11/27 04:42:08;;;;;;;4.75;1.85;;;;;;;;;;6108549;23;20034;-65
2022/11/27 04:44:34;;;;;;;7.10;1.75;;;;;;;;;;6129929;23;20060;-66
2022/11/27 04:47:02;;;;;;;7.97;1.95;;;;;;;;;;6132025;23;20108;-67
2022/11/27 04:49:28;;;;;;;6.78;2.10;;;;;;;;;;6085943;23;20385;-67
2022/11/27 04:51:55;;;;;;;6.60;1.98;;;;;;;;;;6131798;23;20037;-66
2022/11/27 04:54:22;;;;;;;4.85;1.70;;;;;;;;;;6120066;23;20131;-68
2022/11/27 04:56:48;;;;;;;6.10;2.60;;;;;;;;;;6108823;23;20212;-67
2022/11/27 04:59:15;;;;;;;4.13;1.75;;;;;;;;;;6071669;23;20021;-65
2022/11/27 05:01:41;;;;;;;3.92;1.77;;;;;;;;;;6123189;23;20029;-65
2022/11/27 05:04:09;;;;;;;7.85;2.10;;;;;;;;;;6105273;23;20029;-66
2022/11/27 05:06:36;;;;;;;10.20;2.00;;;;;;;;;;6105344;23;20046;-68
2022/11/27 05:09:02;;;;;;;5.35;2.00;;;;;;;;;;6101861;23;20270;-69
2022/11/27 05:11:29;;;;;;;5.35;1.95;;;;;;;;;;6040541;23;20037;-67
2022/11/27 05:16:36;;;;;;;6.57;1.73;;;;;;;;;;6100318;23;20030;-69
2022/11/27 05:19:02;;;;;;;4.45;1.75;;;;;;;;;;6109427;23;20021;-65
2022/11/27 05:21:30;;;;;;;5.00;1.70;;;;;;;;;;6124216;23;20025;-68
2022/11/27 05:23:58;;;;;;;10.52;1.77;;;;;;;;;;6090671;23;20029;-69
2022/11/27 05:26:24;;;;;;;3.65;1.73;;;;;;;;;;6080906;23;20065;-66
2022/11/27 05:28:52;;;;;;;;;;;;;;;;;;6054463;23;20052;-65
2022/11/27 05:31:19;;;;;;;5.13;1.50;;;;;;;;;;6067779;23;19920;-66
2022/11/27 05:33:45;;;;;;;6.18;1.80;;;;;;;;;;6076539;23;20030;-71
2022/11/27 05:36:12;;;;;;;9.57;1.80;;;;;;;;;;6087976;23;20142;-70
2022/11/27 05:38:41;;;;;;;6.88;1.90;;;;;;;;;;6092110;23;20030;-65
2022/11/27 05:41:07;;;;;;;;;;;;;;;;;;6111198;23;20029;-67
2022/11/27 05:43:34;;;;;;;6.15;1.30;;;;;;;;;;6068638;23;19920;-69
2022/11/27 05:46:04;;;;;;;6.05;1.75;;;;;;;;;;6056050;23;20038;-67
2022/11/27 05:48:31;;;;;;;7.70;2.22;;;;;;;;;;6067779;23;20033;-67
2022/11/27 05:50:57;;;;;;;7.82;1.75;;;;;;;;;;6078270;23;20037;-66
2022/11/27 05:53:24;;;;;;;4.32;1.85;;;;;;;;;;6072816;23;20036;-67
2022/11/27 05:55:51;;;;;;;4.80;1.50;;;;;;;;;;6112936;23;20104;-67
2022/11/27 05:58:18;;;;;;;6.00;1.90;;;;;;;;;;6104163;23;20089;-68
2022/11/27 06:00:45;;;;;;;5.70;1.70;;;;;;;;;;6065487;23;20029;-68
2022/11/27 06:03:12;;;;;;;3.80;1.73;;;;;;;;;;6070008;23;20037;-66
2022/11/27 06:05:39;;;;;;;5.68;1.77;;;;;;;;;;6079139;23;20036;-71
2022/11/27 06:08:05;;;;;;;4.00;1.58;;;;;;;;;;6088610;23;20030;-70
2022/11/27 06:10:32;;;;;;;5.53;1.27;;;;;;;;;;6108465;23;20116;-67
2022/11/27 06:13:00;;;;;;;5.85;1.75;;;;;;;;;;6065151;23;20185;-71
2022/11/27 06:15:26;;;;;;;6.17;2.07;;;;;;;;;;6080530;23;20029;-67
2022/11/27 06:17:53;;;;;;;4.45;1.55;;;;;;;;;;6105398;23;20109;-65
2022/11/27 06:20:20;;;;;;;5.10;1.67;;;;;;;;;;6103472;23;20429;-66
2022/11/27 06:22:46;;;;;;;4.63;1.63;;;;;;;;;;6078755;23;20036;-68
2022/11/27 06:25:13;;;;;;;6.20;2.20;;;;;;;;;;6073895;23;20037;-70
2022/11/27 06:27:39;;;;;;;5.90;1.77;;;;;;;;;;6076441;23;20029;-70
2022/11/27 06:30:08;;;;;;;4.95;1.77;;;;;;;;;;6104337;23;20030;-65
2022/11/27 06:32:34;;;;;;;;;;;;;;;;;;6065977;23;20029;-67
2022/11/27 06:35:01;;;;;;;7.22;1.70;;;;;;;;;;6059474;23;19928;-68
2022/11/27 06:37:28;;;;;;;4.55;1.75;;;;;;;;;;6090667;23;20085;-66
2022/11/27 06:39:54;;;;;;;5.80;1.92;;;;;;;;;;6090951;23;20030;-64
2022/11/27 06:42:21;;;;;;;5.78;1.98;;;;;;;;;;6077907;23;20034;-66
2022/11/27 06:44:47;;;;;;;4.65;1.90;;;;;;;;;;6117881;23;20092;-68
2022/11/27 06:47:15;;;;;;;5.00;1.88;;;;;;;;;;6055353;23;20026;-69
2022/11/27 06:49:42;;;;;;;5.05;1.67;;;;;;;;;;6092936;23;20041;-68
2022/11/27 06:52:08;;;;;;;5.80;1.95;;;;;;;;;;6079019;23;20061;-67
2022/11/27 06:54:35;;;;;;;6.45;1.83;;;;;;;;;;6102254;23;20034;-67
2022/11/27 06:57:02;;;;;;;5.20;2.08;;;;;;;;;;6078866;23;20036;-67
2022/11/27 06:59:28;;;;;;;6.63;2.08;;;;;;;;;;6063836;23;20128;-70
2022/11/27 07:01:55;;;;;;;4.93;2.05;;;;;;;;;;6044494;23;20037;-67
2022/11/27 07:04:23;;;;;;;8.25;1.98;;;;;;;;;;6115293;23;20115;-66
2022/11/27 07:06:49;;;;;;;5.15;1.80;;;;;;;;;;6133645;23;20048;-66
2022/11/27 07:09:16;;;;;;;6.00;2.08;;;;;;;;;;6119520;23;20048;-70
2022/11/27 07:11:42;;;;;;;6.13;2.00;;;;;;;;;;6067502;23;20041;-64
2022/11/27 07:14:09;;;;;;;4.15;1.80;;;;;;;;;;6111496;23;20091;-66
2022/11/27 07:16:36;;;;;;;4.70;1.80;;;;;;;;;;6103930;23;20038;-70
2022/11/27 07:19:05;;;;;;;7.88;1.80;;;;;;;;;;6112204;23;20025;-65
2022/11/27 07:21:37;;;;;;;4.80;1.88;;;;;;;;;;6075343;23;20096;-66
2022/11/27 07:24:04;;;;;;;4.72;1.58;;;;;;;;;;6065788;23;20029;-69
2022/11/27 07:26:31;;;;;;;7.47;2.33;;;;;;;;;;6081252;23;20097;-68
2022/11/27 07:28:57;;;;;;;5.65;1.98;;;;;;;;;;6125977;23;20058;-68
2022/11/27 07:31:26;;;;;;;5.35;1.95;;;;;;;;;;6095187;23;20292;-68
2022/11/27 07:33:53;;;;;;;4.40;1.77;;;;;;;;;;6102274;23;20105;-67
2022/11/27 07:36:20;;;;;;;8.65;2.10;;;;;;;;;;6050595;23;20030;-67
2022/11/27 07:38:52;;;;;;;5.95;1.92;;;;;;;;;;6121158;23;20034;-69
2022/11/27 07:41:18;;;;;;;6.10;2.13;;;;;;;;;;6094928;23;20025;-69
2022/11/27 07:43:46;;;;;;;5.93;2.20;;;;;;;;;;6077846;23;20032;-64
2022/11/27 07:46:14;;;;;;;6.72;2.20;;;;;;;;;;6098715;23;20045;-70
2022/11/27 07:48:40;;;;;;;9.45;2.42;;;;;;;;;;6080546;23;20029;-68
2022/11/27 07:51:08;;;;;;;4.32;1.88;;;;;;;;;;6074155;23;20041;-69
2022/11/27 07:53:38;;;;;;;5.75;2.00;;;;;;;;;;6083045;23;20038;-68
2022/11/27 07:56:06;;;;;;;5.18;2.22;;;;;;;;;;6086966;23;20116;-66
2022/11/27 07:58:33;;;;;;;6.22;2.13;;;;;;;;;;6039226;23;20033;-67
2022/11/27 08:01:00;;;;;;;6.82;2.35;;;;;;;;;;6077559;23;20034;-69
2022/11/27 08:03:26;;;;;;;7.00;2.20;;;;;;;;;;6060926;23;20025;-67
2022/11/27 08:05:53;;;;;;;4.93;1.88;;;;;;;;;;6130236;23;20025;-68
2022/11/27 08:08:19;;;;;;;5.32;2.50;;;;;;;;;;6107408;23;20017;-71
2022/11/27 08:10:46;;;;;;;6.10;2.33;;;;;;;;;;6104023;23;20030;-71
2022/11/27 08:13:14;;;;;;;6.55;2.28;;;;;;;;;;6076289;23;20063;-66
2022/11/27 08:15:40;;;;;;;8.27;2.43;;;;;;;;;;6125440;23;20073;-68
2022/11/27 08:18:07;;;;;;;4.05;1.83;;;;;;;;;;6075904;23;20272;-69
2022/11/27 08:20:34;;;;;;;7.15;2.20;;;;;;;;;;6103112;23;20029;-66
2022/11/27 08:23:00;;;;;;;5.95;2.20;;;;;;;;;;6064791;23;20084;-66
2022/11/27 08:25:28;;;;;;;8.15;2.42;;;;;;;;;;6092708;23;20097;-69
2022/11/27 08:27:55;;;;;;;7.00;2.25;;;;;;;;;;6073739;23;20034;-69
2022/11/27 08:30:23;;;;;;;6.50;2.20;;;;;;;;;;6041148;23;20030;-67
2022/11/27 08:32:50;;;;;;;7.55;2.40;;;;;;;;;;6053040;23;20041;-65
2022/11/27 08:35:18;;;;;;;6.80;2.30;;;;;;;;;;6093253;23;20049;-69
2022/11/27 08:37:44;;;;;;;7.03;2.17;;;;;;;;;;6076041;23;20037;-69
2022/11/27 08:40:11;;;;;;;10.93;2.42;;;;;;;;;;6066477;23;20025;-67
2022/11/27 08:42:38;;;;;;;8.85;2.72;;;;;;;;;;6076245;23;20097;-69
2022/11/27 08:45:07;;;;;;;10.60;2.60;;;;;;;;;;6078137;23;20037;-65
2022/11/27 08:47:37;;;;;;;6.13;2.63;;;;;;;;;;6068862;23;20049;-64
2022/11/27 08:50:04;;;;;;;6.70;2.60;;;;;;;;;;6067386;23;20033;-68
2022/11/27 08:52:31;;;;;;;9.05;2.83;;;;;;;;;;6082778;23;20025;-69
2022/11/27 08:55:00;;;;;;;6.55;2.13;;;;;;;;;;6129233;23;20029;-66
2022/11/27 08:57:27;;;;;;;5.95;1.98;;;;;;;;;;6077287;23;20168;-67
2022/11/27 08:59:54;;;;;;;6.85;2.20;;;;;;;;;;6118969;23;20036;-69
2022/11/27 09:02:23;;;;;;;5.95;2.20;;;;;;;;;;6118520;23;20029;-66
2022/11/27 09:04:51;;;;;;;6.43;2.47;;;;;;;;;;6074290;23;20064;-68
2022/11/27 09:07:18;;;;;;;6.13;2.20;;;;;;;;;;6110760;23;20505;-68
2022/11/27 09:09:44;;;;;;;6.78;2.30;;;;;;;;;;6129732;23;20273;-69
2022/11/27 09:12:11;;;;;;;7.63;2.35;;;;;;;;;;6094510;23;20084;-68
2022/11/27 09:14:38;;;;;;;6.43;2.30;;;;;;;;;;6129854;23;20054;-65
2022/11/27 09:17:06;;;;;;;8.20;2.55;;;;;;;;;;6070891;23;20040;-68
2022/11/27 09:19:32;;;;;;;6.13;2.33;;;;;;;;;;6097424;23;20128;-70
2022/11/27 09:22:00;;;;;;;4.47;1.98;;;;;;;;;;6103341;23;20029;-70
2022/11/27 09:24:27;;;;;;;5.03;2.47;;;;;;;;;;6079157;23;20108;-66
2022/11/27 09:26:54;;;;;;;7.57;2.90;;;;;;;;;;6110222;23;20068;-69
2022/11/27 09:29:20;;;;;;;4.53;1.98;;;;;;;;;;6122072;23;20033;-67
2022/11/27 09:31:47;;;;;;;9.02;2.65;;;;;;;;;;6109899;23;20053;-69
2022/11/27 09:34:13;;;;;;;5.72;2.45;;;;;;;;;;6120546;23;20036;-67
2022/11/27 09:36:40;;;;;;;6.68;2.35;;;;;;;;;;6082306;23;20036;-68
2022/11/27 09:39:08;;;;;;;6.50;2.63;;;;;;;;;;6113247;23;20053;-71
2022/11/27 09:41:44;;;;;;;5.93;2.60;;;;;;;;;;6133653;23;20053;-67
2022/11/27 09:44:16;;;;;;;7.30;2.30;;;;;;;;;;6040222;23;20029;-68
2022/11/27 09:46:44;;;;;;;7.80;2.40;;;;;;;;;;6105177;23;20034;-68
2022/11/27 09:49:13;;;;;;;8.23;2.53;;;;;;;;;;6066356;23;20026;-70
2022/11/27 09:51:44;;;;;;;8.20;2.47;;;;;;;;;;6049050;23;20026;-69
2022/11/27 09:54:15;;;;;;;5.97;2.70;;;;;;;;;;6029422;23;20034;-69
2022/11/27 09:56:43;;;;;;;7.78;2.50;;;;;;;;;;6081655;23;20041;-72
2022/11/27 09:59:14;;;;;;;6.05;2.47;;;;;;;;;;6078657;23;20036;-66
2022/11/27 10:01:40;;;;;;;8.68;2.47;;;;;;;;;;6059328;23;20033;-69
2022/11/27 10:04:09;;;;;;;7.30;2.60;;;;;;;;;;6078307;23;20109;-70
2022/11/27 10:06:40;;;;;;;6.18;2.17;;;;;;;;;;6075481;23;20056;-66
2022/11/27 10:09:16;;;;;;;5.50;2.47;;;;;;;;;;6120478;23;20035;-68
2022/11/27 10:11:49;;;;;;;7.13;2.60;;;;;;;;;;6097750;23;20026;-68
2022/11/27 10:14:30;;;;;;;6.13;2.42;;;;;;;;;;6119062;23;20053;-71
2022/11/27 10:16:59;;;;;;;7.07;2.50;;;;;;;;;;6085605;23;20033;-68
2022/11/27 10:19:30;;;;;;;6.10;2.70;;;;;;;;;;6124153;23;20776;-71
2022/11/27 10:21:59;;;;;;;8.32;2.80;;;;;;;;;;6079677;23;20034;-69
2022/11/27 10:24:35;;;;;;;6.88;2.88;;;;;;;;;;6104493;23;20026;-66
2022/11/27 10:27:09;;;;;;;6.15;2.40;;;;;;;;;;6088469;23;20096;-68
2022/11/27 10:29:36;;;;;;;6.82;2.60;;;;;;;;;;6097038;23;20076;-69
2022/11/27 10:32:04;;;;;;;9.20;2.88;;;;;;;;;;6076249;23;20050;-65
2022/11/27 10:34:35;;;;;;;8.98;2.78;;;;;;;;;;6057938;23;20033;-69
2022/11/27 10:37:06;;;;;;;7.15;2.55;;;;;;;;;;6063676;23;20057;-66
2022/11/27 10:39:36;;;;;;;7.93;2.72;;;;;;;;;;6125744;23;20029;-67
2022/11/27 10:42:07;;;;;;;6.75;2.67;;;;;;;;;;6075534;23;20026;-65
2022/11/27 10:44:35;;;;;;;7.13;2.70;;;;;;;;;;6060110;23;20030;-70
2022/11/27 10:47:05;;;;;;;6.63;2.63;;;;;;;;;;6087647;23;20037;-66
2022/11/27 10:49:33;;;;;;;7.28;2.75;;;;;;;;;;6050361;23;20036;-67
2022/11/27 10:51:59;;;;;;;7.75;2.65;;;;;;;;;;6116428;23;20104;-68
2022/11/27 10:54:27;;;;;;;7.03;2.70;;;;;;;;;;6057834;23;20022;-67
2022/11/27 10:57:08;;;;;;;7.32;3.20;;;;;;;;;;6032042;23;20061;-66
2022/11/27 10:59:43;;;;;;;5.97;2.70;;;;;;;;;;6053904;23;20030;-68
2022/11/27 11:02:25;;;;;;;8.23;3.20;;;;;;;;;;6047465;23;20085;-67
2022/11/27 11:04:51;;;;;;;8.35;2.53;;;;;;;;;;6027408;23;20030;-65
2022/11/27 11:07:23;;;;;;;8.73;3.05;;;;;;;;;;6040134;23;20086;-67
2022/11/27 11:09:50;;;;;;;7.45;2.85;;;;;;;;;;6026030;23;20064;-67
2022/11/27 11:12:19;;;;;;;9.13;3.15;;;;;;;;;;6027481;23;20030;-70
2022/11/27 11:14:52;;;;;;;6.95;2.60;;;;;;;;;;5999764;23;20077;-66
2022/11/27 11:17:25;;;;;;;8.30;3.05;;;;;;;;;;6009439;23;20026;-72
2022/11/27 11:19:52;;;;;;;8.38;2.80;;;;;;;;;;6046535;23;20041;-69
2022/11/27 11:22:21;;;;;;;8.93;2.88;;;;;;;;;;6006274;23;20030;-70
2022/11/27 11:24:48;;;;;;;7.82;2.65;;;;;;;;;;6034968;23;20030;-70
2022/11/27 11:27:15;;;;;;;8.70;2.97;;;;;;;;;;6047296;23;20022;-69
2022/11/27 11:29:47;;;;;;;6.65;2.70;;;;;;;;;;6065893;23;20034;-70
2022/11/27 11:32:17;;;;;;;7.15;2.90;;;;;;;;;;6044447;23;20033;-68
2022/11/27 11:34:45;;;;;;;7.13;2.85;;;;;;;;;;6064407;23;20037;-70
2022/11/27 11:37:20;;;;;;;9.15;2.92;;;;;;;;;;6012442;23;20061;-67
2022/11/27 11:39:52;;;;;;;9.52;3.03;;;;;;;;;;6062379;23;20037;-71
2022/11/27 11:42:20;;;;;;;8.15;2.88;;;;;;;;;;6024366;23;20037;-67
2022/11/27 11:44:50;;;;;;;6.37;2.80;;;;;;;;;;6038006;23;20045;-71
2022/11/27 11:47:18;;;;;;;7.15;2.97;;;;;;;;;;6071608;23;20265;-68
2022/11/27 11:49:46;;;;;;;10.35;3.35;;;;;;;;;;6050790;23;20040;-68
2022/11/27 11:52:20;;;;;;;7.15;2.80;;;;;;;;;;6066308;23;20092;-69
2022/11/27 11:54:56;;;;;;;10.02;3.00;;;;;;;;;;6037033;23;20034;-68
2022/11/27 11:57:30;;;;;;;6.75;2.97;;;;;;;;;;6044357;23;20052;-67
2022/11/27 12:00:02;;;;;;;7.60;2.83;;;;;;;;;;6062118;23;20113;-67
2022/11/27 12:02:39;;;;;;;7.20;2.85;;;;;;;;;;6077582;23;20030;-66
2022/11/27 12:05:19;;;;;;;8.65;3.13;;;;;;;;;;6027962;23;20276;-69
2022/11/27 12:07:54;;;;;;;6.65;3.22;;;;;;;;;;6041305;23;20173;-71
2022/11/27 12:10:24;;;;;;;7.60;2.97;;;;;;;;;;6077408;23;20109;-67
2022/11/27 12:12:55;;;;;;;11.18;3.58;;;;;;;;;;6075778;23;20061;-66
2022/11/27 12:15:26;;;;;;;7.20;2.83;;;;;;;;;;6050556;23;20044;-69
2022/11/27 12:17:59;;;;;;;8.80;3.00;;;;;;;;;;6037977;23;20164;-67
2022/11/27 12:20:29;;;;;;;9.90;3.33;;;;;;;;;;6062990;23;20029;-66
2022/11/27 12:23:11;;;;;;;12.65;4.00;;;;;;;;;;6053777;23;20034;-68
2022/11/27 12:25:43;;;;;;;6.07;2.50;;;;;;;;;;6073679;23;20137;-69
2022/11/27 12:28:18;;;;;;;7.88;2.88;;;;;;;;;;6078755;23;20138;-65
2022/11/27 12:30:49;;;;;;;8.30;3.42;;;;;;;;;;6032846;23;20113;-69
2022/11/27 12:33:22;;;;;;;6.38;2.92;;;;;;;;;;6060627;23;20054;-72
2022/11/27 12:35:52;;;;;;;8.32;3.30;;;;;;;;;;6050503;23;20037;-70
2022/11/27 12:38:28;;;;;;;7.65;3.28;;;;;;;;;;6067787;23;20038;-67
2022/11/27 12:41:06;;;;;;;12.40;3.20;;;;;;;;;;6062615;23;20029;-69
2022/11/27 12:43:36;;;;;;;8.98;2.97;;;;;;;;;;5992308;23;20054;-67
2022/11/27 12:46:04;;;;;;;11.00;3.60;;;;;;;;;;6007541;23;20092;-71
2022/11/27 12:48:35;;;;;;;8.77;3.13;;;;;;;;;;6064521;23;20029;-66
2022/11/27 12:51:04;;;;;;;8.35;3.15;;;;;;;;;;5938903;23;20028;-70
2022/11/27 12:53:40;;;;;;;10.18;3.35;;;;;;;;;;6114560;23;20033;-67
2022/11/27 12:56:12;;;;;;;8.93;3.30;;;;;;;;;;6135052;23;20100;-71
2022/11/27 12:58:41;;;;;;;8.68;3.72;;;;;;;;;;6054253;23;20036;-66
2022/11/27 13:01:10;;;;;;;10.32;3.58;;;;;;;;;;6117613;23;20103;-71
2022/11/27 13:03:42;;;;;;;7.03;2.67;;;;;;;;;;6131551;23;20029;-68
2022/11/27 13:06:10;;;;;;;8.18;3.35;;;;;;;;;;6088317;23;20029;-69
2022/11/27 13:08:42;;;;;;;8.98;3.08;;;;;;;;;;6064644;23;20099;-66
2022/11/27 13:11:12;;;;;;;6.63;2.65;;;;;;;;;;6037278;23;20054;-67
2022/11/27 13:13:42;;;;;;;7.82;3.28;;;;;;;;;;6098944;23;20050;-65
2022/11/27 13:16:11;;;;;;;9.65;3.95;;;;;;;;;;6038215;23;20033;-69
2022/11/27 13:18:37;;;;;;;;;;;;;;;;;;6052372;23;20022;-70
2022/11/27 13:21:08;;;;;;;7.00;3.17;;;;;;;;;;6064752;23;19920;-65
2022/11/27 13:23:35;;;;;;;8.80;3.38;;;;;;;;;;6099423;23;20049;-68
2022/11/27 13:26:04;;;;;;;7.93;3.28;;;;;;;;;;6020693;23;20030;-67
2022/11/27 13:28:36;;;;;;;10.77;3.50;;;;;;;;;;6071082;23;20026;-66
2022/11/27 13:31:02;;;;;;;9.45;3.00;;;;;;;;;;6090432;23;20101;-70
2022/11/27 13:33:34;;;;;;;7.93;3.15;;;;;;;;;;6098678;23;20090;-63
2022/11/27 13:36:03;;;;;;;7.55;3.30;;;;;;;;;;6043124;23;20034;-68
2022/11/27 13:39:03;;;;;;;;;;;;;;;;;;;;;
2022/11/27 13:41:34;;;;;;;8.07;3.08;;;;;;;;;;6048854;23;20119;-72
2022/11/27 13:44:03;;;;;;;8.05;3.28;;;;;;;;;;6059972;23;20031;-69
2022/11/27 13:46:43;;;;;;;6.68;2.65;;;;;;;;;;5946495;23;20031;-66
2022/11/27 13:49:23;;;;;;;6.90;2.90;;;;;;;;;;5955037;23;20127;-68
2022/11/27 13:51:52;;;;;;;8.90;3.40;;;;;;;;;;6024117;23;20053;-70
2022/11/27 13:54:20;;;;;;;8.60;2.63;;;;;;;;;;6049587;23;20029;-70
2022/11/27 13:59:55;;;;;;;7.05;2.88;;;;;;;;;;6006318;23;19960;-70
2022/11/27 14:02:22;;;;;;;8.13;2.75;;;;;;;;;;5994883;23;21137;-68
2022/11/27 14:04:52;;;;;;;6.57;3.00;;;;;;;;;;5927603;23;20043;-67
2022/11/27 14:07:20;;;;;;;7.88;2.67;;;;;;;;;;6041380;23;20129;-66
2022/11/27 14:09:49;;;;;;;7.75;2.90;;;;;;;;;;6080052;23;20030;-68
2022/11/27 14:12:19;;;;;;;7.03;3.17;;;;;;;;;;6075346;23;20045;-64
2022/11/27 14:14:57;;;;;;;7.93;3.22;;;;;;;;;;5990127;23;20093;-67
2022/11/27 14:17:26;;;;;;;7.93;3.43;;;;;;;;;;6038051;23;20026;-67
2022/11/27 14:19:59;;;;;;;8.13;3.38;;;;;;;;;;6061872;23;20128;-66
2022/11/27 14:22:33;;;;;;;9.35;2.95;;;;;;;;;;6085259;23;20022;-68
2022/11/27 14:25:01;;;;;;;7.82;3.05;;;;;;;;;;6105134;23;20029;-69
2022/11/27 14:27:35;;;;;;;7.60;2.90;;;;;;;;;;6089530;23;20028;-69
2022/11/27 14:30:12;;;;;;;9.15;3.35;;;;;;;;;;6077188;23;20076;-69
2022/11/27 14:32:38;;;;;;;10.55;2.92;;;;;;;;;;6078392;23;20030;-71
2022/11/27 14:35:18;;;;;;;7.68;2.75;;;;;;;;;;6080799;23;20029;-71
2022/11/27 14:37:45;;;;;;;6.78;2.85;;;;;;;;;;6066053;23;20029;-71
2022/11/27 14:40:14;;;;;;;7.20;3.00;;;;;;;;;;6079878;23;20041;-66
2022/11/27 14:42:41;;;;;;;8.18;2.97;;;;;;;;;;6103344;23;20025;-69
2022/11/27 14:45:14;;;;;;;8.20;2.90;;;;;;;;;;6095064;23;20034;-65
2022/11/27 14:47:45;;;;;;;8.57;3.30;;;;;;;;;;6042819;23;20093;-67
2022/11/27 14:50:13;;;;;;;8.90;3.15;;;;;;;;;;6086666;23;20038;-69
2022/11/27 14:52:40;;;;;;;7.35;3.00;;;;;;;;;;6054616;23;20125;-67
2022/11/27 14:55:13;;;;;;;7.65;2.90;;;;;;;;;;6040973;23;20122;-73
2022/11/27 14:57:44;;;;;;;7.35;2.90;;;;;;;;;;6016740;23;20037;-70
2022/11/27 15:00:15;;;;;;;7.43;2.97;;;;;;;;;;6120230;23;20103;-67
2022/11/27 15:02:42;;;;;;;9.45;3.15;;;;;;;;;;6119023;23;20103;-69
2022/11/27 15:05:16;;;;;;;9.07;3.17;;;;;;;;;;6109259;23;20025;-68